Time;durP1;ratioP1;P1;durP2;ratioP2;P2;SDS_P1;SDS_P2;PMS_P1;PMS_P2;Temp;Humidity;BMP_temperature;BMP_pressure;BME280_temperature;BME280_humidity;BME280_pressure;Samples;Min_cycle;Max_cycle;Signal;HPM_P1;HPM_P2
2024/02/29 00:00:45;;;;;;;36.42;23.40;;;;;;;;;;5018892;28;20044;-67
2024/02/29 00:03:11;;;;;;;37.05;24.77;;;;;;;;;;5020745;28;20069;-67
2024/02/29 00:05:37;;;;;;;39.03;24.88;;;;;;;;;;5027001;28;20193;-67
2024/02/29 00:08:03;;;;;;;37.30;24.33;;;;;;;;;;5028277;28;20140;-67
2024/02/29 00:10:30;;;;;;;36.20;24.40;;;;;;;;;;5022457;28;20048;-67
2024/02/29 00:12:57;;;;;;;34.13;22.98;;;;;;;;;;5021404;28;20469;-67
2024/02/29 00:15:23;;;;;;;38.75;24.20;;;;;;;;;;5016731;28;20057;-67
2024/02/29 00:17:49;;;;;;;35.50;24.42;;;;;;;;;;5017886;28;20045;-67
2024/02/29 00:20:15;;;;;;;36.67;23.55;;;;;;;;;;5020247;28;20076;-67
2024/02/29 00:22:42;;;;;;;36.90;24.38;;;;;;;;;;5018079;28;20057;-67
2024/02/29 00:25:08;;;;;;;35.22;22.63;;;;;;;;;;5007963;28;21913;-68
2024/02/29 00:27:35;;;;;;;33.22;23.95;;;;;;;;;;5000243;28;20084;-67
2024/02/29 00:30:01;;;;;;;33.72;22.42;;;;;;;;;;4995450;28;20108;-67
2024/02/29 00:32:27;;;;;;;32.88;23.63;;;;;;;;;;5005894;28;20210;-68
2024/02/29 00:34:53;;;;;;;32.88;23.83;;;;;;;;;;5007563;28;20053;-67
2024/02/29 00:37:20;;;;;;;36.03;24.85;;;;;;;;;;5015723;28;20144;-67
2024/02/29 00:39:46;;;;;;;31.33;21.63;;;;;;;;;;5013989;28;20441;-67
2024/02/29 00:42:12;;;;;;;35.15;22.55;;;;;;;;;;5013285;28;20060;-67
2024/02/29 00:44:38;;;;;;;34.22;23.58;;;;;;;;;;5017622;28;20099;-67
2024/02/29 00:47:04;;;;;;;33.20;23.27;;;;;;;;;;5024891;28;20041;-67
2024/02/29 00:49:31;;;;;;;31.50;23.35;;;;;;;;;;5023468;28;20588;-67
2024/02/29 00:51:58;;;;;;;35.35;23.27;;;;;;;;;;5017373;28;20049;-67
2024/02/29 00:54:25;;;;;;;30.63;21.58;;;;;;;;;;5021696;28;20060;-67
2024/02/29 00:56:51;;;;;;;34.22;22.75;;;;;;;;;;5021794;28;20099;-67
2024/02/29 00:59:17;;;;;;;32.38;23.25;;;;;;;;;;5017095;28;20041;-67
2024/02/29 01:01:43;;;;;;;30.67;22.23;;;;;;;;;;5013531;28;20460;-67
2024/02/29 01:04:09;;;;;;;34.05;23.13;;;;;;;;;;5014646;28;20076;-67
2024/02/29 01:06:36;;;;;;;33.13;23.30;;;;;;;;;;5020357;28;20049;-67
2024/02/29 01:09:02;;;;;;;30.35;21.33;;;;;;;;;;5011996;28;20060;-67
2024/02/29 01:11:28;;;;;;;31.85;22.98;;;;;;;;;;5016268;28;20088;-67
2024/02/29 01:13:54;;;;;;;29.92;21.42;;;;;;;;;;5014850;28;20053;-67
2024/02/29 01:16:20;;;;;;;30.48;22.75;;;;;;;;;;5018340;28;20518;-67
2024/02/29 01:18:46;;;;;;;31.13;22.13;;;;;;;;;;5027951;28;20042;-67
2024/02/29 01:21:13;;;;;;;29.13;21.33;;;;;;;;;;5022477;28;20052;-68
2024/02/29 01:23:39;;;;;;;29.10;21.98;;;;;;;;;;5020531;28;20037;-67
2024/02/29 01:26:05;;;;;;;27.20;19.45;;;;;;;;;;5016869;28;20126;-68
2024/02/29 01:28:32;;;;;;;28.20;21.45;;;;;;;;;;5020820;28;20054;-67
2024/02/29 01:31:00;;;;;;;41.60;22.60;;;;;;;;;;5021863;28;20078;-67
2024/02/29 01:33:26;;;;;;;30.85;21.77;;;;;;;;;;5024618;28;20045;-67
2024/02/29 01:35:52;;;;;;;29.27;20.65;;;;;;;;;;5029272;28;20044;-67
2024/02/29 01:38:18;;;;;;;29.48;22.42;;;;;;;;;;5037253;28;20056;-67
2024/02/29 01:40:45;;;;;;;32.38;20.77;;;;;;;;;;5031935;28;20045;-67
2024/02/29 01:43:12;;;;;;;30.77;21.95;;;;;;;;;;5032365;28;20041;-67
2024/02/29 01:45:38;;;;;;;31.40;21.48;;;;;;;;;;5035914;28;20056;-67
2024/02/29 01:48:04;;;;;;;29.48;20.20;;;;;;;;;;5018409;28;20061;-67
2024/02/29 01:50:31;;;;;;;33.10;22.52;;;;;;;;;;5001036;28;20046;-68
2024/02/29 01:52:57;;;;;;;28.67;20.17;;;;;;;;;;5025904;28;20440;-67
2024/02/29 01:55:23;;;;;;;33.63;19.60;;;;;;;;;;5021142;28;20468;-67
2024/02/29 01:57:49;;;;;;;31.42;21.17;;;;;;;;;;5019258;28;20136;-67
2024/02/29 02:00:16;;;;;;;31.13;21.50;;;;;;;;;;5022658;28;20045;-67
2024/02/29 02:02:43;;;;;;;30.40;21.50;;;;;;;;;;5019440;28;20045;-67
2024/02/29 02:05:09;;;;;;;33.05;21.52;;;;;;;;;;5018124;28;20151;-67
2024/02/29 02:07:35;;;;;;;33.42;21.08;;;;;;;;;;5023793;28;20376;-67
2024/02/29 02:10:03;;;;;;;33.42;22.38;;;;;;;;;;5002878;28;20182;-67
2024/02/29 02:12:29;;;;;;;30.90;20.58;;;;;;;;;;5021057;28;20515;-67
2024/02/29 02:14:55;;;;;;;30.23;20.77;;;;;;;;;;5018971;28;20072;-67
2024/02/29 02:17:21;;;;;;;34.42;20.85;;;;;;;;;;5018496;28;20045;-67
2024/02/29 02:19:48;;;;;;;32.80;20.90;;;;;;;;;;5021140;28;20389;-67
2024/02/29 02:22:14;;;;;;;36.42;20.95;;;;;;;;;;5023417;28;20113;-67
2024/02/29 02:24:41;;;;;;;34.67;21.15;;;;;;;;;;5024891;28;20469;-67
2024/02/29 02:27:07;;;;;;;34.55;20.63;;;;;;;;;;5021714;28;20060;-67
2024/02/29 02:29:33;;;;;;;32.47;18.58;;;;;;;;;;5022343;28;20044;-67
2024/02/29 02:31:59;;;;;;;34.25;21.27;;;;;;;;;;5021430;28;20068;-67
2024/02/29 02:34:25;;;;;;;30.08;21.10;;;;;;;;;;5039914;28;20049;-67
2024/02/29 02:36:52;;;;;;;33.40;21.85;;;;;;;;;;5021889;28;20075;-68
2024/02/29 02:39:18;;;;;;;30.00;20.38;;;;;;;;;;5029696;28;20064;-67
2024/02/29 02:41:45;;;;;;;32.13;20.73;;;;;;;;;;5023062;28;20067;-67
2024/02/29 02:44:12;;;;;;;32.67;20.45;;;;;;;;;;5030681;28;20053;-67
2024/02/29 02:46:38;;;;;;;33.45;21.35;;;;;;;;;;5026152;28;20064;-67
2024/02/29 02:49:04;;;;;;;32.33;19.65;;;;;;;;;;5021372;28;20191;-67
2024/02/29 02:51:30;;;;;;;34.10;21.23;;;;;;;;;;5036230;28;20040;-67
2024/02/29 02:53:57;;;;;;;76.85;22.55;;;;;;;;;;5041152;28;20052;-67
2024/02/29 02:56:24;;;;;;;31.27;19.67;;;;;;;;;;5029023;28;20041;-67
2024/02/29 02:58:50;;;;;;;35.22;20.13;;;;;;;;;;5047460;28;20041;-67
2024/02/29 03:01:16;;;;;;;30.13;20.70;;;;;;;;;;5022484;28;20041;-67
2024/02/29 03:03:43;;;;;;;27.80;19.40;;;;;;;;;;5026625;28;20396;-67
2024/02/29 03:06:09;;;;;;;34.50;19.95;;;;;;;;;;5046225;28;20090;-67
2024/02/29 03:08:35;;;;;;;31.52;19.92;;;;;;;;;;5047345;28;20045;-67
2024/02/29 03:11:01;;;;;;;33.30;19.20;;;;;;;;;;5027648;28;20159;-67
2024/02/29 03:13:27;;;;;;;35.20;21.17;;;;;;;;;;5029320;28;20481;-68
2024/02/29 03:15:53;;;;;;;34.03;19.95;;;;;;;;;;5027755;28;20052;-67
2024/02/29 03:18:20;;;;;;;29.85;19.20;;;;;;;;;;5027275;28;20045;-67
2024/02/29 03:20:46;;;;;;;31.08;19.45;;;;;;;;;;5042446;28;20365;-67
2024/02/29 03:23:12;;;;;;;33.88;21.42;;;;;;;;;;5023994;28;20064;-67
2024/02/29 03:25:38;;;;;;;34.22;22.13;;;;;;;;;;5024947;28;20637;-67
2024/02/29 03:28:05;;;;;;;41.30;22.92;;;;;;;;;;5039415;28;20113;-67
2024/02/29 03:30:31;;;;;;;43.22;22.40;;;;;;;;;;5025710;28;20069;-67
2024/02/29 03:32:57;;;;;;;40.90;24.65;;;;;;;;;;5027109;28;20526;-67
2024/02/29 03:35:23;;;;;;;39.33;23.35;;;;;;;;;;5025462;28;20397;-67
2024/02/29 03:37:49;;;;;;;46.10;23.02;;;;;;;;;;5027861;28;20049;-67
2024/02/29 03:40:15;;;;;;;46.95;24.88;;;;;;;;;;5027950;28;20076;-67
2024/02/29 03:42:42;;;;;;;46.95;24.20;;;;;;;;;;5025361;28;20049;-67
2024/02/29 03:45:08;;;;;;;47.25;25.70;;;;;;;;;;5024525;28;20124;-67
2024/02/29 03:47:35;;;;;;;48.83;26.50;;;;;;;;;;5027313;28;20049;-67
2024/02/29 03:50:01;;;;;;;45.55;25.65;;;;;;;;;;5028157;28;20045;-67
2024/02/29 03:52:27;;;;;;;53.88;27.10;;;;;;;;;;5027474;28;20061;-67
2024/02/29 03:54:53;;;;;;;53.83;27.02;;;;;;;;;;5029366;28;20087;-67
2024/02/29 03:57:19;;;;;;;47.42;25.77;;;;;;;;;;5029961;28;20067;-67
2024/02/29 03:59:47;;;;;;;50.92;29.58;;;;;;;;;;5030706;28;20045;-67
2024/02/29 04:02:14;;;;;;;51.63;25.40;;;;;;;;;;5028125;28;20480;-67
2024/02/29 04:04:40;;;;;;;55.15;27.92;;;;;;;;;;5030848;28;20045;-67
2024/02/29 04:07:06;;;;;;;50.95;26.77;;;;;;;;;;5026748;28;20485;-67
2024/02/29 04:09:33;;;;;;;58.80;27.67;;;;;;;;;;5026701;28;20259;-67
2024/02/29 04:11:59;;;;;;;52.33;26.40;;;;;;;;;;5022638;28;20134;-67
2024/02/29 04:14:25;;;;;;;48.38;26.33;;;;;;;;;;5025714;28;20543;-67
2024/02/29 04:16:51;;;;;;;55.65;26.65;;;;;;;;;;5024169;28;20127;-67
2024/02/29 04:19:17;;;;;;;53.65;25.42;;;;;;;;;;5006186;28;20389;-67
2024/02/29 04:21:44;;;;;;;52.15;26.33;;;;;;;;;;5023216;28;20045;-67
2024/02/29 04:24:10;;;;;;;50.42;25.40;;;;;;;;;;5024653;28;20407;-67
2024/02/29 04:26:37;;;;;;;51.28;26.58;;;;;;;;;;5033060;28;20165;-67
2024/02/29 04:29:03;;;;;;;49.33;26.65;;;;;;;;;;5029213;28;20060;-67
2024/02/29 04:31:29;;;;;;;49.10;25.45;;;;;;;;;;5030820;28;20049;-67
2024/02/29 04:33:55;;;;;;;48.05;25.00;;;;;;;;;;5032465;28;20057;-67
2024/02/29 04:36:21;;;;;;;52.25;24.92;;;;;;;;;;5028668;28;20101;-67
2024/02/29 04:38:49;;;;;;;47.08;25.17;;;;;;;;;;5028122;28;20481;-67
2024/02/29 04:41:16;;;;;;;41.05;22.45;;;;;;;;;;5031845;28;20103;-67
2024/02/29 04:43:42;;;;;;;56.53;26.27;;;;;;;;;;5032560;28;20057;-67
2024/02/29 04:46:09;;;;;;;44.40;23.25;;;;;;;;;;5029723;28;20049;-67
2024/02/29 04:48:35;;;;;;;52.50;25.02;;;;;;;;;;5025377;28;20049;-67
2024/02/29 04:51:01;;;;;;;48.33;24.58;;;;;;;;;;5029305;28;20049;-67
2024/02/29 04:53:28;;;;;;;50.70;24.65;;;;;;;;;;5030871;28;20041;-67
2024/02/29 04:55:54;;;;;;;48.13;24.52;;;;;;;;;;5025148;28;20144;-67
2024/02/29 04:58:20;;;;;;;47.10;23.70;;;;;;;;;;5024105;28;20109;-67
2024/02/29 05:00:46;;;;;;;54.08;25.27;;;;;;;;;;5023190;28;20041;-67
2024/02/29 05:03:12;;;;;;;43.17;23.98;;;;;;;;;;5020647;28;20754;-67
2024/02/29 05:05:38;;;;;;;49.17;24.50;;;;;;;;;;5021957;28;20053;-67
2024/02/29 05:08:05;;;;;;;44.78;22.08;;;;;;;;;;5026207;28;20365;-67
2024/02/29 05:10:31;;;;;;;46.70;22.88;;;;;;;;;;5021099;28;20189;-67
2024/02/29 05:12:57;;;;;;;40.22;21.75;;;;;;;;;;5022642;28;20049;-67
2024/02/29 05:15:24;;;;;;;46.55;21.92;;;;;;;;;;5023708;28;20219;-67
2024/02/29 05:17:50;;;;;;;44.13;23.70;;;;;;;;;;5020891;28;20076;-67
2024/02/29 05:20:16;;;;;;;49.60;23.35;;;;;;;;;;5020502;28;20064;-67
2024/02/29 05:22:44;;;;;;;38.50;21.33;;;;;;;;;;5020939;28;20060;-67
2024/02/29 05:25:10;;;;;;;47.75;22.80;;;;;;;;;;5027621;28;20047;-67
2024/02/29 05:27:37;;;;;;;45.83;21.52;;;;;;;;;;5028374;28;20060;-68
2024/02/29 05:30:04;;;;;;;42.70;22.73;;;;;;;;;;5031355;28;20746;-67
2024/02/29 05:32:30;;;;;;;40.13;20.20;;;;;;;;;;5030798;28;20132;-67
2024/02/29 05:34:56;;;;;;;40.22;21.38;;;;;;;;;;5026593;28;20041;-67
2024/02/29 05:37:22;;;;;;;45.42;22.85;;;;;;;;;;5029599;28;20569;-67
2024/02/29 05:39:48;;;;;;;44.88;21.98;;;;;;;;;;5029654;28;20393;-67
2024/02/29 05:42:15;;;;;;;40.90;20.70;;;;;;;;;;5029713;28;20038;-67
2024/02/29 05:44:41;;;;;;;40.35;21.45;;;;;;;;;;5026997;28;20056;-67
2024/02/29 05:47:08;;;;;;;39.35;20.48;;;;;;;;;;5026024;28;20037;-67
2024/02/29 05:49:34;;;;;;;41.58;20.83;;;;;;;;;;5023894;28;20132;-67
2024/02/29 05:52:00;;;;;;;38.20;20.95;;;;;;;;;;5025410;28;20037;-67
2024/02/29 05:54:26;;;;;;;34.25;19.15;;;;;;;;;;5008914;28;20033;-67
2024/02/29 05:56:54;;;;;;;41.28;20.65;;;;;;;;;;5024359;28;20133;-67
2024/02/29 05:59:20;;;;;;;39.63;20.35;;;;;;;;;;5024658;28;20049;-67
2024/02/29 06:01:46;;;;;;;41.92;20.88;;;;;;;;;;5019366;28;20049;-67
2024/02/29 06:04:12;;;;;;;37.40;21.25;;;;;;;;;;5019787;28;20045;-67
2024/02/29 06:06:38;;;;;;;37.92;20.60;;;;;;;;;;5022554;28;20060;-67
2024/02/29 06:09:05;;;;;;;38.75;20.52;;;;;;;;;;5020265;28;20052;-67
2024/02/29 06:11:31;;;;;;;42.55;22.77;;;;;;;;;;5022774;28;20049;-67
2024/02/29 06:13:57;;;;;;;41.30;21.08;;;;;;;;;;5020150;28;20044;-67
2024/02/29 06:16:23;;;;;;;40.63;21.02;;;;;;;;;;5032935;28;20164;-67
2024/02/29 06:18:49;;;;;;;40.97;21.13;;;;;;;;;;5023025;28;20508;-67
2024/02/29 06:21:16;;;;;;;38.45;20.55;;;;;;;;;;5024647;28;20037;-67
2024/02/29 06:23:42;;;;;;;34.95;19.58;;;;;;;;;;5031537;28;20053;-67
2024/02/29 06:26:08;;;;;;;39.38;20.92;;;;;;;;;;5026873;28;20173;-67
2024/02/29 06:28:34;;;;;;;44.03;21.80;;;;;;;;;;5024985;28;20241;-67
2024/02/29 06:31:01;;;;;;;44.13;21.90;;;;;;;;;;5022247;28;20042;-67
2024/02/29 06:33:27;;;;;;;39.15;21.25;;;;;;;;;;5032679;28;20041;-67
2024/02/29 06:35:53;;;;;;;45.97;21.73;;;;;;;;;;5029610;28;20092;-67
2024/02/29 06:38:20;;;;;;;40.28;20.50;;;;;;;;;;5031948;28;20133;-67
2024/02/29 06:40:47;;;;;;;44.42;21.17;;;;;;;;;;5032839;28;20401;-67
2024/02/29 06:43:13;;;;;;;46.33;21.73;;;;;;;;;;5033143;28;20053;-67
2024/02/29 06:45:45;;;;;;;44.65;22.40;;;;;;;;;;5032744;28;20084;-67
2024/02/29 06:48:11;;;;;;;48.80;23.95;;;;;;;;;;5029018;28;20048;-67
2024/02/29 06:50:38;;;;;;;46.80;22.42;;;;;;;;;;5033806;28;20547;-67
2024/02/29 06:53:04;;;;;;;51.10;24.73;;;;;;;;;;5029253;28;20139;-67
2024/02/29 06:55:30;;;;;;;56.15;23.77;;;;;;;;;;5027692;28;20041;-67
2024/02/29 06:57:56;;;;;;;51.03;24.02;;;;;;;;;;5031555;28;20148;-67
2024/02/29 07:00:24;;;;;;;48.75;23.85;;;;;;;;;;5027033;28;20034;-66
2024/02/29 07:02:51;;;;;;;55.25;24.65;;;;;;;;;;5028690;28;20042;-67
2024/02/29 07:05:17;;;;;;;58.95;24.92;;;;;;;;;;5030030;28;20041;-66
2024/02/29 07:07:44;;;;;;;53.28;24.20;;;;;;;;;;5025435;28;20057;-67
2024/02/29 07:10:11;;;;;;;58.35;24.65;;;;;;;;;;5031447;28;20409;-66
2024/02/29 07:12:37;;;;;;;53.47;24.42;;;;;;;;;;5025484;28;20053;-66
2024/02/29 07:15:04;;;;;;;54.72;24.38;;;;;;;;;;5030725;28;20040;-66
2024/02/29 07:17:30;;;;;;;50.13;23.73;;;;;;;;;;5031472;28;20073;-67
2024/02/29 07:19:56;;;;;;;56.15;23.55;;;;;;;;;;5022110;28;20557;-66
2024/02/29 07:22:23;;;;;;;56.55;24.33;;;;;;;;;;5025137;28;20128;-66
2024/02/29 07:24:49;;;;;;;52.15;23.80;;;;;;;;;;5023243;28;20067;-67
2024/02/29 07:27:16;;;;;;;55.83;25.33;;;;;;;;;;5013716;28;20506;-66
2024/02/29 07:29:42;;;;;;;56.78;24.95;;;;;;;;;;5020193;28;20050;-66
2024/02/29 07:32:09;;;;;;;51.58;25.65;;;;;;;;;;5024092;28;20060;-65
2024/02/29 07:34:35;;;;;;;56.55;26.48;;;;;;;;;;5028735;28;20490;-65
2024/02/29 07:37:02;;;;;;;65.03;26.85;;;;;;;;;;5025095;28;20060;-65
2024/02/29 07:39:29;;;;;;;68.80;28.85;;;;;;;;;;5045999;28;20056;-66
2024/02/29 07:41:55;;;;;;;63.58;28.63;;;;;;;;;;5027208;28;20096;-66
2024/02/29 07:44:21;;;;;;;67.78;27.83;;;;;;;;;;5028006;28;20489;-66
2024/02/29 07:46:47;;;;;;;71.68;29.77;;;;;;;;;;5031493;28;20041;-66
2024/02/29 07:49:14;;;;;;;66.07;28.05;;;;;;;;;;5020330;28;20076;-66
2024/02/29 07:51:40;;;;;;;69.97;29.35;;;;;;;;;;5026566;28;20053;-66
2024/02/29 07:54:06;;;;;;;67.70;28.58;;;;;;;;;;5024112;28;20501;-66
2024/02/29 07:56:33;;;;;;;64.38;27.20;;;;;;;;;;5024026;28;20428;-66
2024/02/29 07:58:59;;;;;;;64.75;28.77;;;;;;;;;;5022256;28;20127;-66
2024/02/29 08:01:25;;;;;;;62.25;28.13;;;;;;;;;;5018292;28;20052;-66
2024/02/29 08:03:51;;;;;;;67.25;28.75;;;;;;;;;;5016637;28;20712;-67
2024/02/29 08:06:17;;;;;;;68.63;28.30;;;;;;;;;;5023372;28;20190;-72
2024/02/29 08:08:44;;;;;;;65.32;28.48;;;;;;;;;;5013844;28;20046;-66
2024/02/29 08:11:10;;;;;;;62.60;28.33;;;;;;;;;;5019027;28;20868;-66
2024/02/29 08:13:36;;;;;;;69.28;28.88;;;;;;;;;;5018708;28;20494;-66
2024/02/29 08:16:02;;;;;;;89.07;29.55;;;;;;;;;;5025676;28;20711;-65
2024/02/29 08:18:29;;;;;;;67.28;28.65;;;;;;;;;;5006893;28;20042;-65
2024/02/29 08:20:55;;;;;;;62.92;26.60;;;;;;;;;;5022475;28;20075;-66
2024/02/29 08:23:21;;;;;;;61.10;29.30;;;;;;;;;;5020252;28;20041;-66
2024/02/29 08:25:47;;;;;;;65.00;27.95;;;;;;;;;;5017348;28;20054;-66
2024/02/29 08:28:14;;;;;;;66.00;25.50;;;;;;;;;;5018096;28;20088;-66
2024/02/29 08:30:40;;;;;;;67.72;27.50;;;;;;;;;;5003768;28;20041;-66
2024/02/29 08:33:06;;;;;;;58.67;27.60;;;;;;;;;;5026375;28;20480;-66
2024/02/29 08:35:32;;;;;;;62.53;26.95;;;;;;;;;;5040448;28;20053;-66
2024/02/29 08:37:59;;;;;;;62.05;26.73;;;;;;;;;;5022366;28;20106;-66
2024/02/29 08:40:25;;;;;;;62.85;25.25;;;;;;;;;;5041072;28;20137;-66
2024/02/29 08:42:51;;;;;;;62.05;25.63;;;;;;;;;;5025344;28;20049;-66
2024/02/29 08:45:18;;;;;;;55.78;25.05;;;;;;;;;;5040576;28;20045;-66
2024/02/29 08:47:45;;;;;;;52.22;25.35;;;;;;;;;;5044091;28;20141;-66
2024/02/29 08:50:11;;;;;;;52.17;24.63;;;;;;;;;;5039085;28;20557;-66
2024/02/29 08:52:40;;;;;;;53.17;23.92;;;;;;;;;;5023667;28;20045;-66
2024/02/29 08:55:07;;;;;;;58.78;25.20;;;;;;;;;;5039875;28;20396;-65
2024/02/29 08:57:33;;;;;;;52.90;22.20;;;;;;;;;;5042819;28;20133;-66
2024/02/29 08:59:59;;;;;;;54.88;24.35;;;;;;;;;;5045981;28;20119;-66
2024/02/29 09:02:26;;;;;;;53.97;24.65;;;;;;;;;;5025137;28;20127;-66
2024/02/29 09:04:53;;;;;;;51.83;25.10;;;;;;;;;;5043556;28;20257;-66
2024/02/29 09:07:19;;;;;;;50.45;23.38;;;;;;;;;;5021758;28;20059;-66
2024/02/29 09:09:45;;;;;;;51.70;23.20;;;;;;;;;;5043692;28;20404;-66
2024/02/29 09:12:12;;;;;;;53.55;24.38;;;;;;;;;;5046013;28;20067;-66
2024/02/29 09:14:38;;;;;;;59.53;24.77;;;;;;;;;;4998743;28;20060;-66
2024/02/29 09:17:06;;;;;;;54.03;24.42;;;;;;;;;;5043098;28;20076;-65
2024/02/29 09:19:33;;;;;;;53.72;25.23;;;;;;;;;;5021191;28;20041;-66
2024/02/29 09:21:59;;;;;;;52.75;24.85;;;;;;;;;;5023747;28;20107;-67
2024/02/29 09:24:26;;;;;;;59.72;26.05;;;;;;;;;;5018396;28;20045;-68
2024/02/29 09:26:52;;;;;;;57.88;26.58;;;;;;;;;;5019706;28;20049;-67
2024/02/29 09:29:18;;;;;;;60.70;26.38;;;;;;;;;;5026054;28;20079;-66
2024/02/29 09:31:44;;;;;;;61.92;26.67;;;;;;;;;;5028855;28;20045;-67
2024/02/29 09:34:10;;;;;;;59.47;27.05;;;;;;;;;;5028407;28;20056;-67
2024/02/29 09:36:37;;;;;;;63.17;27.70;;;;;;;;;;5046836;28;20052;-67
2024/02/29 09:39:05;;;;;;;61.10;26.67;;;;;;;;;;5027940;28;20042;-67
2024/02/29 09:41:31;;;;;;;67.75;27.42;;;;;;;;;;5029388;28;20060;-67
2024/02/29 09:43:58;;;;;;;66.45;27.58;;;;;;;;;;5030107;28;20132;-67
2024/02/29 09:46:24;;;;;;;58.83;26.80;;;;;;;;;;5029860;28;20120;-67
2024/02/29 09:48:52;;;;;;;61.15;26.85;;;;;;;;;;5026721;28;20045;-67
2024/02/29 09:51:20;;;;;;;59.80;26.30;;;;;;;;;;5033063;28;20120;-67
2024/02/29 09:53:52;;;;;;;58.30;26.38;;;;;;;;;;5047073;28;20077;-67
2024/02/29 09:56:23;;;;;;;65.57;26.73;;;;;;;;;;5033704;28;20049;-67
2024/02/29 09:58:51;;;;;;;62.33;27.08;;;;;;;;;;5034666;28;20048;-67
2024/02/29 10:01:17;;;;;;;68.35;28.48;;;;;;;;;;5013138;28;20055;-67
2024/02/29 10:03:44;;;;;;;59.60;26.45;;;;;;;;;;5029649;28;20072;-67
2024/02/29 10:06:11;;;;;;;60.10;27.35;;;;;;;;;;5036434;28;20053;-66
2024/02/29 10:08:38;;;;;;;62.10;27.75;;;;;;;;;;5051568;28;20120;-67
2024/02/29 10:11:05;;;;;;;66.97;28.00;;;;;;;;;;5035271;28;20382;-67
2024/02/29 10:13:39;;;;;;;63.13;27.50;;;;;;;;;;5033146;28;20041;-67
2024/02/29 10:16:08;;;;;;;64.70;27.63;;;;;;;;;;5029576;28;20036;-67
2024/02/29 10:18:35;;;;;;;64.72;26.45;;;;;;;;;;5032919;28;20143;-67
2024/02/29 10:21:02;;;;;;;61.13;25.80;;;;;;;;;;5034061;28;20045;-67
2024/02/29 10:23:29;;;;;;;60.15;26.27;;;;;;;;;;5031885;28;20061;-67
2024/02/29 10:25:56;;;;;;;57.88;25.58;;;;;;;;;;5033238;28;20041;-67
2024/02/29 10:28:22;;;;;;;64.82;25.42;;;;;;;;;;5040942;28;20140;-66
2024/02/29 10:30:51;;;;;;;54.65;25.15;;;;;;;;;;5030510;28;20065;-67
2024/02/29 10:33:18;;;;;;;69.60;27.63;;;;;;;;;;5008898;28;20085;-67
2024/02/29 10:35:44;;;;;;;60.83;25.55;;;;;;;;;;5028284;28;20044;-67
2024/02/29 10:38:10;;;;;;;65.30;25.65;;;;;;;;;;5030125;28;20049;-67
2024/02/29 10:40:36;;;;;;;62.30;25.02;;;;;;;;;;5031299;28;20079;-67
2024/02/29 10:43:03;;;;;;;60.63;26.05;;;;;;;;;;5028151;28;21341;-67
2024/02/29 10:45:29;;;;;;;57.83;25.70;;;;;;;;;;5028126;28;20496;-67
2024/02/29 10:47:58;;;;;;;59.22;24.27;;;;;;;;;;5031066;28;20041;-67
2024/02/29 10:50:25;;;;;;;54.90;23.73;;;;;;;;;;5030646;28;20067;-67
2024/02/29 10:52:57;;;;;;;52.47;23.92;;;;;;;;;;5031168;28;20072;-67
2024/02/29 10:55:25;;;;;;;56.63;25.35;;;;;;;;;;5029733;28;20053;-67
2024/02/29 10:57:54;;;;;;;58.22;24.40;;;;;;;;;;5027202;28;20065;-67
2024/02/29 11:00:20;;;;;;;54.78;24.27;;;;;;;;;;5030454;28;20434;-67
2024/02/29 11:02:48;;;;;;;52.53;24.20;;;;;;;;;;5027501;28;20111;-67
2024/02/29 11:05:14;;;;;;;59.55;25.15;;;;;;;;;;5029524;28;20595;-67
2024/02/29 11:07:41;;;;;;;54.95;23.40;;;;;;;;;;5029372;28;20037;-67
2024/02/29 11:10:08;;;;;;;48.22;22.67;;;;;;;;;;5028020;28;20431;-67
2024/02/29 11:12:40;;;;;;;55.47;22.40;;;;;;;;;;5027800;28;20049;-67
2024/02/29 11:15:09;;;;;;;58.45;23.52;;;;;;;;;;5026637;28;20057;-67
2024/02/29 11:17:36;;;;;;;52.05;23.02;;;;;;;;;;5029793;28;20049;-67
2024/02/29 11:20:07;;;;;;;54.25;23.70;;;;;;;;;;5026065;28;20126;-67
2024/02/29 11:22:34;;;;;;;49.95;22.27;;;;;;;;;;5021529;28;20089;-67
2024/02/29 11:25:08;;;;;;;45.08;21.48;;;;;;;;;;5029709;28;20115;-67
2024/02/29 11:27:34;;;;;;;45.22;21.95;;;;;;;;;;5028844;28;20064;-67
2024/02/29 11:30:01;;;;;;;45.20;21.60;;;;;;;;;;5023304;28;20049;-67
2024/02/29 11:32:31;;;;;;;42.42;21.35;;;;;;;;;;5032662;28;20047;-67
2024/02/29 11:34:59;;;;;;;42.58;21.38;;;;;;;;;;5027446;28;20057;-67
2024/02/29 11:37:25;;;;;;;43.47;20.67;;;;;;;;;;5027328;28;20037;-67
2024/02/29 11:39:51;;;;;;;39.35;19.00;;;;;;;;;;5029467;28;20497;-67
2024/02/29 11:42:19;;;;;;;38.60;18.95;;;;;;;;;;5026250;28;20096;-67
2024/02/29 11:44:47;;;;;;;37.15;17.90;;;;;;;;;;5028463;28;21274;-67
2024/02/29 11:47:13;;;;;;;40.22;19.35;;;;;;;;;;5029595;28;20072;-67
2024/02/29 11:49:39;;;;;;;36.05;18.52;;;;;;;;;;5028514;28;20110;-67
2024/02/29 11:52:05;;;;;;;34.00;17.27;;;;;;;;;;5030651;28;20438;-67
2024/02/29 11:54:32;;;;;;;32.78;17.77;;;;;;;;;;5027617;28;20714;-67
2024/02/29 11:56:58;;;;;;;34.17;17.58;;;;;;;;;;5027930;28;20068;-67
2024/02/29 11:59:24;;;;;;;31.35;16.38;;;;;;;;;;5031613;28;20117;-67
2024/02/29 12:01:50;;;;;;;31.33;16.88;;;;;;;;;;5029028;28;20121;-67
2024/02/29 12:04:16;;;;;;;29.20;16.23;;;;;;;;;;5027013;28;20424;-67
2024/02/29 12:06:45;;;;;;;28.83;16.10;;;;;;;;;;5030151;28;20076;-67
2024/02/29 12:09:12;;;;;;;30.65;16.20;;;;;;;;;;5026110;28;20125;-67
2024/02/29 12:11:39;;;;;;;25.65;15.07;;;;;;;;;;5028642;28;20063;-67
2024/02/29 12:14:06;;;;;;;31.15;16.30;;;;;;;;;;5029430;28;20037;-67
2024/02/29 12:16:35;;;;;;;31.95;16.45;;;;;;;;;;5025951;28;20060;-67
2024/02/29 12:19:02;;;;;;;27.08;16.45;;;;;;;;;;5030643;28;20076;-67
2024/02/29 12:21:28;;;;;;;34.85;17.23;;;;;;;;;;5029066;28;20108;-67
2024/02/29 12:23:56;;;;;;;34.75;16.65;;;;;;;;;;5025361;28;20124;-67
2024/02/29 12:26:23;;;;;;;35.90;16.98;;;;;;;;;;5032758;28;20364;-67
2024/02/29 12:28:50;;;;;;;33.15;17.00;;;;;;;;;;5028021;28;20049;-67
2024/02/29 12:31:17;;;;;;;31.67;16.08;;;;;;;;;;5026436;28;20071;-67
2024/02/29 12:33:43;;;;;;;38.17;17.70;;;;;;;;;;5029071;28;20050;-67
2024/02/29 12:36:12;;;;;;;30.98;15.82;;;;;;;;;;5026510;28;20123;-67
2024/02/29 12:38:40;;;;;;;34.70;17.45;;;;;;;;;;5027099;28;20048;-67
2024/02/29 12:41:06;;;;;;;30.70;16.63;;;;;;;;;;5020795;28;20052;-67
2024/02/29 12:43:33;;;;;;;32.47;16.92;;;;;;;;;;5024951;28;20378;-67
2024/02/29 12:46:00;;;;;;;32.78;17.25;;;;;;;;;;5029094;28;20112;-67
2024/02/29 12:48:26;;;;;;;34.70;16.02;;;;;;;;;;5026607;28;20183;-67
2024/02/29 12:50:52;;;;;;;34.03;17.50;;;;;;;;;;5025227;28;20052;-67
2024/02/29 12:53:19;;;;;;;36.03;17.40;;;;;;;;;;5028477;28;20054;-67
2024/02/29 12:55:47;;;;;;;37.97;19.25;;;;;;;;;;5002824;28;20540;-67
2024/02/29 12:58:13;;;;;;;37.55;18.52;;;;;;;;;;5025691;28;20131;-67
2024/02/29 13:00:40;;;;;;;35.42;18.40;;;;;;;;;;5027582;28;20050;-67
2024/02/29 13:03:06;;;;;;;37.60;18.92;;;;;;;;;;5026909;28;20046;-67
2024/02/29 13:05:32;;;;;;;42.22;19.52;;;;;;;;;;5028030;28;20036;-67
2024/02/29 13:07:58;;;;;;;37.97;19.33;;;;;;;;;;5026048;28;20048;-67
2024/02/29 13:10:25;;;;;;;41.30;19.27;;;;;;;;;;5026376;28;20496;-67
2024/02/29 13:12:52;;;;;;;39.90;19.65;;;;;;;;;;5025264;28;20672;-67
2024/02/29 13:15:18;;;;;;;41.22;20.85;;;;;;;;;;5025907;28;20038;-67
2024/02/29 13:17:45;;;;;;;40.53;20.45;;;;;;;;;;5027382;28;20041;-67
2024/02/29 13:20:11;;;;;;;49.03;21.35;;;;;;;;;;5029593;28;20496;-67
2024/02/29 13:22:39;;;;;;;45.33;21.77;;;;;;;;;;5027674;28;20063;-67
2024/02/29 13:25:05;;;;;;;47.13;21.52;;;;;;;;;;5017321;28;20049;-67
2024/02/29 13:27:31;;;;;;;51.83;23.55;;;;;;;;;;5036573;28;20110;-67
2024/02/29 13:29:58;;;;;;;53.15;24.00;;;;;;;;;;5008831;28;20449;-67
2024/02/29 13:32:24;;;;;;;54.67;25.20;;;;;;;;;;5020829;28;20056;-67
2024/02/29 13:34:51;;;;;;;50.63;23.17;;;;;;;;;;5024492;28;20363;-67
2024/02/29 13:37:17;;;;;;;49.10;23.55;;;;;;;;;;5020110;28;20041;-66
2024/02/29 13:39:43;;;;;;;47.67;21.70;;;;;;;;;;5027004;28;20097;-66
2024/02/29 13:42:10;;;;;;;47.38;22.35;;;;;;;;;;5037580;28;20110;-67
2024/02/29 13:44:36;;;;;;;50.47;23.10;;;;;;;;;;5012754;28;20529;-67
2024/02/29 13:47:04;;;;;;;49.05;23.42;;;;;;;;;;5027692;28;20045;-66
2024/02/29 13:49:31;;;;;;;50.60;24.08;;;;;;;;;;5029918;28;20048;-67
2024/02/29 13:51:57;;;;;;;50.03;22.92;;;;;;;;;;5030280;28;20048;-66
2024/02/29 13:54:24;;;;;;;43.00;22.35;;;;;;;;;;5029410;28;20046;-67
2024/02/29 13:56:51;;;;;;;49.75;22.52;;;;;;;;;;5027789;28;20042;-66
2024/02/29 13:59:19;;;;;;;53.80;24.05;;;;;;;;;;5029173;28;20673;-66
2024/02/29 14:01:45;;;;;;;50.70;23.75;;;;;;;;;;5023533;28;20046;-67
2024/02/29 14:04:11;;;;;;;51.53;24.90;;;;;;;;;;5027880;28;20045;-67
2024/02/29 14:06:37;;;;;;;55.72;25.88;;;;;;;;;;5041127;28;20423;-67
2024/02/29 14:09:04;;;;;;;58.38;25.85;;;;;;;;;;5027093;28;20033;-67
2024/02/29 14:11:32;;;;;;;62.25;26.30;;;;;;;;;;5027478;28;20049;-67